Time;durP1;ratioP1;P1;durP2;ratioP2;P2;SDS_P1;SDS_P2;PMS_P1;PMS_P2;Temp;Humidity;BMP_temperature;BMP_pressure;BME280_temperature;BME280_humidity;BME280_pressure;Samples;Min_cycle;Max_cycle;Signal;HPM_P1;HPM_P2
2022/05/22 00:00:40;;;;;;;;;;;26.00;39.10;;;;;;1565822;75;1929;-57
2022/05/22 00:02:42;;;;;;;;;;;26.10;39.20;;;;;;1570055;75;1145;-56
2022/05/22 00:04:43;;;;;;;;;;;26.10;39.20;;;;;;1571058;75;1712;-57
2022/05/22 00:06:45;;;;;;;;;;;26.10;39.20;;;;;;1569730;75;640;-54
2022/05/22 00:08:47;;;;;;;;;;;26.00;39.30;;;;;;1559376;75;705;-54
2022/05/22 00:10:49;;;;;;;;;;;26.00;39.20;;;;;;1569434;75;1183;-57
2022/05/22 00:12:51;;;;;;;;;;;26.00;39.30;;;;;;1567111;75;708;-57
2022/05/22 00:14:53;;;;;;;;;;;26.10;39.30;;;;;;1575306;75;804;-55
2022/05/22 00:16:55;;;;;;;;;;;26.10;39.40;;;;;;1569181;75;731;-56
2022/05/22 00:18:57;;;;;;;;;;;26.10;39.40;;;;;;1566152;75;1739;-57
2022/05/22 00:20:58;;;;;;;;;;;26.10;39.40;;;;;;1577966;75;1949;-54
2022/05/22 00:23:00;;;;;;;;;;;26.10;39.50;;;;;;1575514;75;640;-53
2022/05/22 00:25:02;;;;;;;;;;;26.00;39.50;;;;;;1577503;75;727;-57
2022/05/22 00:27:05;;;;;;;;;;;26.10;39.60;;;;;;1579496;75;708;-58
2022/05/22 00:29:07;;;;;;;;;;;26.10;39.60;;;;;;1577747;75;724;-56
2022/05/22 00:31:09;;;;;;;;;;;26.10;39.60;;;;;;1568957;75;1592;-54
2022/05/22 00:33:11;;;;;;;;;;;26.10;39.60;;;;;;1575632;75;713;-57
2022/05/22 00:35:13;;;;;;;;;;;26.10;39.60;;;;;;1565691;75;658;-57
2022/05/22 00:37:15;;;;;;;;;;;26.10;39.70;;;;;;1572549;75;711;-58
2022/05/22 00:39:17;;;;;;;;;;;26.10;39.50;;;;;;1572638;75;798;-59
2022/05/22 00:41:19;;;;;;;;;;;26.10;39.60;;;;;;1572473;75;1941;-58
2022/05/22 00:43:35;;;;;;;;;;;26.10;39.40;;;;;;1561265;75;722;-58
2022/05/22 00:45:37;;;;;;;;;;;26.20;39.50;;;;;;1578530;74;1683;-58
2022/05/22 00:47:39;;;;;;;;;;;26.10;39.50;;;;;;1578292;75;734;-57
2022/05/22 00:49:43;;;;;;;;;;;26.00;39.50;;;;;;1565896;75;731;-55
2022/05/22 00:51:48;;;;;;;;;;;26.10;39.50;;;;;;1565235;75;1495;-58
2022/05/22 00:53:51;;;;;;;;;;;26.00;39.70;;;;;;1572487;75;716;-58
2022/05/22 00:55:53;;;;;;;;;;;26.00;39.60;;;;;;1575951;75;1264;-56
2022/05/22 00:57:57;;;;;;;;;;;26.00;39.60;;;;;;1578650;75;743;-55
2022/05/22 00:59:59;;;;;;;;;;;26.00;39.60;;;;;;1571608;75;1577;-58
2022/05/22 01:02:01;;;;;;;;;;;26.00;39.60;;;;;;1577182;75;1923;-57
2022/05/22 01:04:04;;;;;;;;;;;26.00;39.70;;;;;;1575861;75;670;-56
2022/05/22 01:06:07;;;;;;;;;;;26.00;39.70;;;;;;1576724;74;807;-58
2022/05/22 01:08:09;;;;;;;;;;;26.00;39.60;;;;;;1574564;74;766;-58
2022/05/22 01:10:12;;;;;;;;;;;26.00;39.50;;;;;;1574989;75;1203;-57
2022/05/22 01:12:18;;;;;;;;;;;26.00;39.40;;;;;;1575757;75;774;-58
2022/05/22 01:14:22;;;;;;;;;;;26.00;39.40;;;;;;1577740;74;1708;-56
2022/05/22 01:16:25;;;;;;;;;;;25.90;38.60;;;;;;1570548;74;649;-58
2022/05/22 01:18:27;;;;;;;;;;;25.90;38.60;;;;;;1574907;75;696;-53
2022/05/22 01:20:29;;;;;;;;;;;26.00;39.10;;;;;;1575712;75;1166;-57
2022/05/22 01:22:31;;;;;;;;;;;25.90;38.50;;;;;;1577167;75;1943;-53
2022/05/22 01:24:33;;;;;;;;;;;25.90;38.40;;;;;;1576926;75;669;-56
2022/05/22 01:26:35;;;;;;;;;;;26.00;39.00;;;;;;1577089;75;643;-57
2022/05/22 01:28:36;;;;;;;;;;;25.90;38.50;;;;;;1576328;75;1404;-54
2022/05/22 01:30:38;;;;;;;;;;;25.90;38.40;;;;;;1576896;75;1137;-57
2022/05/22 01:32:41;;;;;;;;;;;25.90;38.40;;;;;;1572259;75;697;-57
2022/05/22 01:34:43;;;;;;;;;;;25.90;38.40;;;;;;1576840;75;667;-57
2022/05/22 01:36:45;;;;;;;;;;;25.90;38.40;;;;;;1576786;75;698;-58
2022/05/22 01:38:47;;;;;;;;;;;25.90;38.40;;;;;;1576834;75;653;-58
2022/05/22 01:40:49;;;;;;;;;;;25.90;38.30;;;;;;1576868;75;1140;-58
2022/05/22 01:42:51;;;;;;;;;;;25.90;38.20;;;;;;1575046;75;1938;-58
2022/05/22 01:44:52;;;;;;;;;;;25.90;38.30;;;;;;1576939;75;753;-57
2022/05/22 01:46:54;;;;;;;;;;;25.90;38.40;;;;;;1573350;75;749;-58
2022/05/22 01:48:57;;;;;;;;;;;25.90;38.40;;;;;;1575419;75;710;-57
2022/05/22 01:50:58;;;;;;;;;;;25.90;38.40;;;;;;1576489;75;1135;-57
2022/05/22 01:53:00;;;;;;;;;;;25.90;38.30;;;;;;1576415;75;661;-58
2022/05/22 01:55:02;;;;;;;;;;;25.90;38.30;;;;;;1576813;75;731;-58
2022/05/22 01:57:04;;;;;;;;;;;25.90;38.30;;;;;;1577676;74;1595;-58
2022/05/22 01:59:06;;;;;;;;;;;25.90;38.10;;;;;;1576314;75;747;-57
2022/05/22 02:01:09;;;;;;;;;;;25.90;38.30;;;;;;1576882;75;1950;-58
2022/05/22 02:03:10;;;;;;;;;;;25.90;38.10;;;;;;1584051;74;1093;-58
2022/05/22 02:05:12;;;;;;;;;;;25.90;38.20;;;;;;1586176;74;734;-58
2022/05/22 02:09:35;;;;;;;;;;;25.90;38.20;;;;;;1585014;74;1616;-58
2022/05/22 02:11:37;;;;;;;;;;;25.80;38.20;;;;;;1587332;74;1164;-58
2022/05/22 02:13:39;;;;;;;;;;;25.90;38.10;;;;;;1586726;74;694;-58
2022/05/22 02:15:41;;;;;;;;;;;25.90;38.20;;;;;;1577792;74;706;-57
2022/05/22 02:17:43;;;;;;;;;;;25.90;38.10;;;;;;1584896;74;732;-57
2022/05/22 02:19:45;;;;;;;;;;;25.80;38.10;;;;;;1580116;73;711;-58
2022/05/22 02:21:47;;;;;;;;;;;25.90;37.90;;;;;;1573253;73;1928;-58
2022/05/22 02:23:49;;;;;;;;;;;25.90;37.90;;;;;;1581435;74;1552;-58
2022/05/22 02:25:51;;;;;;;;;;;25.90;38.00;;;;;;1586838;74;713;-58
2022/05/22 02:27:53;;;;;;;;;;;25.80;38.00;;;;;;1584975;74;708;-58
2022/05/22 02:29:55;;;;;;;;;;;25.90;38.10;;;;;;1581566;74;1143;-58
2022/05/22 02:31:57;;;;;;;;;;;25.90;38.10;;;;;;1587658;74;691;-58
2022/05/22 02:33:59;;;;;;;;;;;25.80;38.00;;;;;;1587206;74;802;-57
2022/05/22 02:36:03;;;;;;;;;;;25.90;38.10;;;;;;1583416;74;727;-57
2022/05/22 02:38:05;;;;;;;;;;;25.90;38.10;;;;;;1586323;74;1981;-58
2022/05/22 02:40:07;;;;;;;;;;;25.90;38.10;;;;;;1587457;74;1136;-57
2022/05/22 02:42:09;;;;;;;;;;;25.90;38.20;;;;;;1587921;74;1924;-57
2022/05/22 02:44:11;;;;;;;;;;;25.90;38.10;;;;;;1587514;74;689;-58
2022/05/22 02:46:14;;;;;;;;;;;25.90;38.20;;;;;;1586916;74;667;-58
2022/05/22 02:48:16;;;;;;;;;;;25.90;38.20;;;;;;1586532;74;753;-58
2022/05/22 02:50:18;;;;;;;;;;;25.90;38.20;;;;;;1583179;74;1101;-57
2022/05/22 02:52:20;;;;;;;;;;;25.90;38.10;;;;;;1587581;74;1574;-57
2022/05/22 02:54:24;;;;;;;;;;;25.90;38.20;;;;;;1579421;74;714;-58
2022/05/22 02:56:25;;;;;;;;;;;25.90;38.00;;;;;;1583127;74;1647;-58
2022/05/22 02:58:27;;;;;;;;;;;25.90;38.00;;;;;;1585463;74;655;-57
2022/05/22 03:00:30;;;;;;;;;;;25.90;38.10;;;;;;1587426;74;1136;-58
2022/05/22 03:02:32;;;;;;;;;;;25.90;38.00;;;;;;1583095;74;1925;-57
2022/05/22 03:04:34;;;;;;;;;;;25.90;38.10;;;;;;1595687;74;807;-58
2022/05/22 03:06:38;;;;;;;;;;;25.80;38.10;;;;;;1595332;74;1608;-56
2022/05/22 03:08:40;;;;;;;;;;;25.90;38.10;;;;;;1593357;74;887;-58
2022/05/22 03:10:44;;;;;;;;;;;25.90;38.00;;;;;;1591565;74;1190;-57
2022/05/22 03:12:45;;;;;;;;;;;25.80;38.00;;;;;;1594951;74;1654;-57
2022/05/22 03:14:52;;;;;;;;;;;25.80;38.00;;;;;;1595488;74;728;-56
2022/05/22 03:16:55;;;;;;;;;;;25.90;38.00;;;;;;1594068;74;720;-58
2022/05/22 03:18:57;;;;;;;;;;;25.90;38.00;;;;;;1594738;74;739;-58
2022/05/22 03:20:59;;;;;;;;;;;25.90;38.00;;;;;;1596573;74;1683;-58
2022/05/22 03:23:01;;;;;;;;;;;25.90;38.10;;;;;;1592028;74;1940;-57
2022/05/22 03:25:03;;;;;;;;;;;25.90;38.00;;;;;;1588994;74;646;-57
2022/05/22 03:27:07;;;;;;;;;;;25.80;38.10;;;;;;1597588;74;699;-57
2022/05/22 03:29:09;;;;;;;;;;;25.90;38.10;;;;;;1586574;74;760;-57
2022/05/22 03:31:11;;;;;;;;;;;25.90;38.20;;;;;;1585844;74;1150;-58
2022/05/22 03:33:12;;;;;;;;;;;25.80;38.10;;;;;;1590578;71;224702;-67
2022/05/22 03:35:14;;;;;;;;;;;25.90;38.10;;;;;;1562147;75;1497;-66
2022/05/22 03:37:16;;;;;;;;;;;25.80;38.10;;;;;;1557056;75;696;-66
2022/05/22 03:39:18;;;;;;;;;;;25.80;38.10;;;;;;1559811;75;659;-67
2022/05/22 03:41:20;;;;;;;;;;;25.80;38.00;;;;;;1561692;75;704;-67
2022/05/22 03:43:22;;;;;;;;;;;25.80;38.00;;;;;;1557296;75;1929;-66
2022/05/22 03:45:24;;;;;;;;;;;25.90;37.90;;;;;;1572026;75;694;-68
2022/05/22 03:47:26;;;;;;;;;;;25.80;37.90;;;;;;1564887;75;634;-68
2022/05/22 03:49:27;;;;;;;;;;;25.90;38.00;;;;;;1570047;75;1486;-66
2022/05/22 03:51:29;;;;;;;;;;;25.80;37.80;;;;;;1523640;77;643;-66
2022/05/22 03:53:31;;;;;;;;;;;25.90;37.90;;;;;;1532029;76;1146;-67
2022/05/22 03:55:33;;;;;;;;;;;25.90;38.00;;;;;;1520907;77;642;-67
2022/05/22 03:57:35;;;;;;;;;;;25.90;37.80;;;;;;1533131;77;676;-67
2022/05/22 03:59:40;;;;;;;;;;;25.90;37.80;;;;;;1546433;75;703;-67
2022/05/22 04:01:42;;;;;;;;;;;25.90;37.70;;;;;;1562690;75;693;-67
2022/05/22 04:03:44;;;;;;;;;;;25.90;37.60;;;;;;1536741;76;1940;-67
2022/05/22 04:05:46;;;;;;;;;;;25.80;37.60;;;;;;1539225;77;757;-67
2022/05/22 04:07:48;;;;;;;;;;;25.90;37.60;;;;;;1570015;74;687;-67
2022/05/22 04:09:50;;;;;;;;;;;25.80;37.50;;;;;;1531173;77;707;-67
2022/05/22 04:11:52;;;;;;;;;;;25.80;37.50;;;;;;1536820;77;658;-67
2022/05/22 04:13:54;;;;;;;;;;;25.80;37.50;;;;;;1528744;76;1165;-68
2022/05/22 04:15:56;;;;;;;;;;;25.80;37.40;;;;;;1516893;77;741;-67
2022/05/22 04:17:57;;;;;;;;;;;25.80;37.40;;;;;;1567274;75;1628;-67
2022/05/22 04:19:59;;;;;;;;;;;25.80;37.40;;;;;;1530267;76;811;-67
2022/05/22 04:22:01;;;;;;;;;;;25.80;37.40;;;;;;1527227;77;1935;-66
2022/05/22 04:26:25;;;;;;;;;;;25.80;37.40;;;;;;1532129;77;1644;-67
2022/05/22 04:28:27;;;;;;;;;;;25.80;37.50;;;;;;1535424;76;1933;-67
2022/05/22 04:30:29;;;;;;;;;;;25.80;37.50;;;;;;1518254;77;1488;-66
2022/05/22 04:32:31;;;;;;;;;;;25.80;37.50;;;;;;1548243;75;723;-68
2022/05/22 04:34:33;;;;;;;;;;;25.80;37.50;;;;;;1542392;75;1080;-67
2022/05/22 04:36:34;;;;;;;;;;;25.80;37.40;;;;;;1550919;75;639;-67
2022/05/22 04:38:36;;;;;;;;;;;25.80;37.40;;;;;;1546042;75;729;-67
2022/05/22 04:40:39;;;;;;;;;;;25.80;37.40;;;;;;1529296;77;714;-67
2022/05/22 04:42:41;;;;;;;;;;;25.70;37.60;;;;;;1535367;77;1897;-67
2022/05/22 04:44:43;;;;;;;;;;;25.80;37.50;;;;;;1537021;75;1347;-68
2022/05/22 04:46:45;;;;;;;;;;;25.80;37.60;;;;;;1526042;75;685;-67
2022/05/22 04:48:47;;;;;;;;;;;25.80;37.50;;;;;;1526236;77;703;-67
2022/05/22 04:50:49;;;;;;;;;;;25.80;37.40;;;;;;1527348;75;702;-68
2022/05/22 04:52:51;;;;;;;;;;;25.80;37.60;;;;;;1528340;75;1138;-67
2022/05/22 04:54:53;;;;;;;;;;;25.70;37.60;;;;;;1526196;77;774;-68
2022/05/22 04:56:55;;;;;;;;;;;25.80;37.60;;;;;;1529512;77;700;-68
2022/05/22 04:58:57;;;;;;;;;;;25.80;37.80;;;;;;1533751;75;1530;-67
2022/05/22 05:00:59;;;;;;;;;;;25.80;37.80;;;;;;1534573;76;693;-68
2022/05/22 05:03:01;;;;;;;;;;;25.80;37.80;;;;;;1528620;77;1934;-67
2022/05/22 05:05:05;;;;;;;;;;;25.80;37.80;;;;;;1530391;77;709;-67
2022/05/22 05:07:06;;;;;;;;;;;25.80;37.80;;;;;;1531923;75;1670;-68
2022/05/22 05:09:08;;;;;;;;;;;25.80;37.80;;;;;;1527089;76;715;-67
2022/05/22 05:11:11;;;;;;;;;;;25.70;37.80;;;;;;1533438;76;730;-68
2022/05/22 05:13:13;;;;;;;;;;;25.80;37.90;;;;;;1530813;75;1502;-68
2022/05/22 05:15:16;;;;;;;;;;;25.70;37.90;;;;;;1528855;76;712;-69
2022/05/22 05:17:18;;;;;;;;;;;25.70;37.90;;;;;;1532956;76;997;-67
2022/05/22 05:19:20;;;;;;;;;;;25.80;38.00;;;;;;1532336;75;692;-68
2022/05/22 05:21:22;;;;;;;;;;;25.80;38.00;;;;;;1534984;75;672;-67
2022/05/22 05:23:23;;;;;;;;;;;25.80;38.10;;;;;;1536943;75;1925;-68
2022/05/22 05:25:25;;;;;;;;;;;25.70;38.10;;;;;;1542991;75;785;-69
2022/05/22 05:27:27;;;;;;;;;;;25.70;38.10;;;;;;1527794;75;1452;-69
2022/05/22 05:29:29;;;;;;;;;;;25.70;38.20;;;;;;1530794;75;688;-68
2022/05/22 05:31:31;;;;;;;;;;;25.70;38.20;;;;;;1528745;75;729;-68
2022/05/22 05:33:33;;;;;;;;;;;25.70;38.20;;;;;;1536608;75;1099;-67
2022/05/22 05:35:35;;;;;;;;;;;25.70;38.30;;;;;;1542068;75;778;-67
2022/05/22 05:37:38;;;;;;;;;;;25.70;38.40;;;;;;1542627;75;743;-68
2022/05/22 05:39:40;;;;;;;;;;;25.80;38.30;;;;;;1536353;75;689;-67
2022/05/22 05:41:42;;;;;;;;;;;25.70;38.30;;;;;;1537680;75;1473;-68
2022/05/22 05:43:44;;;;;;;;;;;25.70;38.30;;;;;;1542048;75;1927;-68
2022/05/22 05:45:47;;;;;;;;;;;25.70;38.40;;;;;;1542459;75;683;-67
2022/05/22 05:47:49;;;;;;;;;;;25.70;38.40;;;;;;1547488;75;764;-68
2022/05/22 05:49:51;;;;;;;;;;;25.70;38.40;;;;;;1541846;75;697;-67
2022/05/22 05:51:53;;;;;;;;;;;25.70;38.40;;;;;;1543993;75;682;-67
2022/05/22 05:53:54;;;;;;;;;;;25.70;38.40;;;;;;1539272;75;1190;-69
2022/05/22 05:55:56;;;;;;;;;;;25.70;38.50;;;;;;1543809;75;1551;-68
2022/05/22 05:58:00;;;;;;;;;;;25.80;38.40;;;;;;1542849;75;683;-67
2022/05/22 06:00:02;;;;;;;;;;;25.80;38.50;;;;;;1539461;75;684;-66
2022/05/22 06:02:05;;;;;;;;;;;25.80;38.40;;;;;;1537959;75;2083;-66
2022/05/22 06:04:07;;;;;;;;;;;25.80;38.50;;;;;;1539991;75;1947;-67
2022/05/22 06:06:09;;;;;;;;;;;25.80;38.40;;;;;;1539250;75;747;-68
2022/05/22 06:08:11;;;;;;;;;;;25.80;38.40;;;;;;1541593;75;680;-66
2022/05/22 06:10:13;;;;;;;;;;;25.90;38.40;;;;;;1534198;77;1506;-67
2022/05/22 06:12:15;;;;;;;;;;;25.90;38.40;;;;;;1537078;75;680;-68
2022/05/22 06:14:17;;;;;;;;;;;25.90;38.30;;;;;;1529481;75;1182;-68
2022/05/22 06:16:19;;;;;;;;;;;25.90;38.40;;;;;;1535660;76;702;-67
2022/05/22 06:18:21;;;;;;;;;;;25.90;38.40;;;;;;1537757;75;792;-67
2022/05/22 06:20:23;;;;;;;;;;;25.90;38.40;;;;;;1537002;76;695;-68
2022/05/22 06:22:26;;;;;;;;;;;25.90;38.40;;;;;;1535696;75;712;-68
2022/05/22 06:24:28;;;;;;;;;;;25.80;38.40;;;;;;1542702;75;1934;-68
2022/05/22 06:26:30;;;;;;;;;;;25.80;38.40;;;;;;1529243;75;682;-69
2022/05/22 06:28:32;;;;;;;;;;;25.80;38.40;;;;;;1529459;75;710;-68
2022/05/22 06:30:34;;;;;;;;;;;25.70;38.40;;;;;;1533407;75;786;-68
2022/05/22 06:32:35;;;;;;;;;;;25.70;38.40;;;;;;1535750;75;684;-68
2022/05/22 06:34:41;;;;;;;;;;;25.70;38.50;;;;;;1535125;75;1122;-68
2022/05/22 06:36:41;;;;;;;;;;;25.70;38.40;;;;;;1527074;75;1514;-67
2022/05/22 06:41:07;;;;;;;;;;;25.70;38.40;;;;;;1532441;75;731;-68
2022/05/22 06:43:08;;;;;;;;;;;25.70;38.40;;;;;;1534940;75;1934;-68
2022/05/22 06:45:13;;;;;;;;;;;25.60;38.40;;;;;;1534736;75;675;-69
2022/05/22 06:47:15;;;;;;;;;;;25.70;38.40;;;;;;1534360;75;743;-68
2022/05/22 06:49:17;;;;;;;;;;;25.70;38.40;;;;;;1526488;75;688;-68
2022/05/22 06:51:19;;;;;;;;;;;25.70;38.40;;;;;;1526618;75;1554;-68
2022/05/22 06:53:20;;;;;;;;;;;25.70;38.40;;;;;;1545610;75;1126;-68
2022/05/22 06:55:23;;;;;;;;;;;25.70;38.40;;;;;;1537890;76;674;-69
2022/05/22 06:57:25;;;;;;;;;;;25.70;38.40;;;;;;1543402;76;694;-68
2022/05/22 06:59:27;;;;;;;;;;;25.70;38.40;;;;;;1551214;75;701;-68
2022/05/22 07:01:29;;;;;;;;;;;25.60;38.40;;;;;;1534987;77;694;-68
2022/05/22 07:03:31;;;;;;;;;;;25.70;38.50;;;;;;1550199;75;1931;-68
2022/05/22 07:05:33;;;;;;;;;;;25.60;38.40;;;;;;1552384;76;1499;-68
2022/05/22 07:07:35;;;;;;;;;;;25.60;38.40;;;;;;1546409;76;698;-68
2022/05/22 07:09:37;;;;;;;;;;;25.70;38.40;;;;;;1541729;76;750;-69
2022/05/22 07:11:39;;;;;;;;;;;25.60;38.50;;;;;;1549934;75;662;-69
2022/05/22 07:13:40;;;;;;;;;;;25.70;38.40;;;;;;1543009;75;1153;-68
2022/05/22 07:15:42;;;;;;;;;;;25.70;38.40;;;;;;1551059;75;791;-70
2022/05/22 07:17:44;;;;;;;;;;;25.60;38.40;;;;;;1549135;76;668;-69
2022/05/22 07:19:46;;;;;;;;;;;25.60;38.40;;;;;;1550051;76;661;-68
2022/05/22 07:21:48;;;;;;;;;;;25.60;38.40;;;;;;1550493;77;683;-69
2022/05/22 07:23:50;;;;;;;;;;;25.70;38.40;;;;;;1549637;75;1950;-68
2022/05/22 07:25:53;;;;;;;;;;;25.70;38.40;;;;;;1549824;75;675;-68
2022/05/22 07:27:55;;;;;;;;;;;25.70;38.40;;;;;;1550457;77;727;-69
2022/05/22 07:29:57;;;;;;;;;;;25.60;38.40;;;;;;1548869;75;728;-69
2022/05/22 07:31:59;;;;;;;;;;;25.60;38.40;;;;;;1550351;76;707;-70
2022/05/22 07:34:01;;;;;;;;;;;25.70;38.40;;;;;;1549749;75;1102;-70
2022/05/22 07:36:03;;;;;;;;;;;25.70;38.40;;;;;;1548054;75;798;-69
2022/05/22 07:38:05;;;;;;;;;;;25.70;38.50;;;;;;1543155;75;677;-70
2022/05/22 07:40:07;;;;;;;;;;;25.60;38.50;;;;;;1551691;75;644;-70
2022/05/22 07:42:09;;;;;;;;;;;25.60;38.50;;;;;;1549263;75;640;-70
2022/05/22 07:44:11;;;;;;;;;;;25.60;38.50;;;;;;1557284;75;1934;-70
2022/05/22 07:46:13;;;;;;;;;;;25.60;38.50;;;;;;1550574;75;673;-69
2022/05/22 07:48:15;;;;;;;;;;;25.60;38.50;;;;;;1548373;75;693;-70
2022/05/22 07:50:17;;;;;;;;;;;25.70;38.50;;;;;;1540593;75;729;-70
2022/05/22 07:52:19;;;;;;;;;;;25.60;38.60;;;;;;1537857;75;654;-70
2022/05/22 07:54:21;;;;;;;;;;;25.60;38.50;;;;;;1536309;75;1118;-70
2022/05/22 07:56:23;;;;;;;;;;;25.60;38.50;;;;;;1537724;75;692;-69
2022/05/22 07:58:25;;;;;;;;;;;25.60;38.50;;;;;;1542909;75;738;-69
2022/05/22 08:00:27;;;;;;;;;;;25.60;38.60;;;;;;1538799;75;640;-70
2022/05/22 08:02:29;;;;;;;;;;;25.60;38.60;;;;;;1538357;75;659;-69
2022/05/22 08:04:31;;;;;;;;;;;25.60;38.60;;;;;;1535450;75;2107;-69
2022/05/22 08:06:34;;;;;;;;;;;25.60;38.50;;;;;;1543118;75;687;-69
2022/05/22 08:08:36;;;;;;;;;;;25.60;38.50;;;;;;1539368;75;670;-68
2022/05/22 08:10:38;;;;;;;;;;;25.60;38.50;;;;;;1534121;75;738;-69
2022/05/22 08:12:43;;;;;;;;;;;25.60;38.40;;;;;;1545982;75;797;-66
2022/05/22 08:14:45;;;;;;;;;;;25.60;38.50;;;;;;1528640;75;1168;-68
2022/05/22 08:16:47;;;;;;;;;;;25.70;38.60;;;;;;1532879;75;772;-68
2022/05/22 08:18:49;;;;;;;;;;;25.60;38.50;;;;;;1539342;75;735;-68
2022/05/22 08:20:52;;;;;;;;;;;25.60;38.50;;;;;;1538048;75;1659;-69
2022/05/22 08:22:55;;;;;;;;;;;25.60;38.50;;;;;;1540505;75;1127;-69
2022/05/22 08:24:57;;;;;;;;;;;25.60;38.40;;;;;;1543670;75;1916;-66
2022/05/22 08:26:59;;;;;;;;;;;25.60;38.50;;;;;;1542180;75;672;-68
2022/05/22 08:29:01;;;;;;;;;;;25.60;38.40;;;;;;1536248;75;678;-68
2022/05/22 08:31:04;;;;;;;;;;;25.70;38.50;;;;;;1539705;75;680;-68
2022/05/22 08:33:06;;;;;;;;;;;25.70;38.50;;;;;;1538966;75;1110;-68
2022/05/22 08:35:09;;;;;;;;;;;25.60;38.50;;;;;;1540544;75;689;-66
2022/05/22 08:37:10;;;;;;;;;;;25.50;38.40;;;;;;1528797;75;780;-69
2022/05/22 08:39:12;;;;;;;;;;;25.60;38.50;;;;;;1530494;75;692;-70
2022/05/22 08:41:15;;;;;;;;;;;25.60;38.40;;;;;;1535405;75;659;-68
2022/05/22 08:43:18;;;;;;;;;;;25.70;38.40;;;;;;1541380;75;1127;-69
2022/05/22 08:45:21;;;;;;;;;;;25.70;38.40;;;;;;1546197;75;1931;-69
2022/05/22 08:47:25;;;;;;;;;;;25.70;38.50;;;;;;1550352;75;680;-68
2022/05/22 08:49:34;;;;;;;;;;;25.70;38.60;;;;;;1546556;75;733;-68
2022/05/22 08:51:41;;;;;;;;;;;25.70;38.60;;;;;;1551349;75;697;-69
2022/05/22 08:53:47;;;;;;;;;;;25.70;38.60;;;;;;1545025;75;1125;-66
2022/05/22 09:00:29;;;;;;;;;;;25.70;38.70;;;;;;1533487;75;1638;-70
2022/05/22 09:02:34;;;;;;;;;;;25.60;38.70;;;;;;1532481;75;676;-71
2022/05/22 09:04:37;;;;;;;;;;;25.70;38.70;;;;;;1538493;75;1939;-70
2022/05/22 09:06:41;;;;;;;;;;;25.60;38.70;;;;;;1543739;75;670;-71
2022/05/22 09:08:49;;;;;;;;;;;25.70;38.60;;;;;;1539528;75;1111;-71
2022/05/22 09:11:09;;;;;;;;;;;25.60;38.30;;;;;;1554118;75;676;-71
2022/05/22 09:13:15;;;;;;;;;;;25.60;38.00;;;;;;1545869;75;1161;-72
2022/05/22 09:15:34;;;;;;;;;;;25.70;37.90;;;;;;1541010;75;1490;-71
2022/05/22 09:17:53;;;;;;;;;;;25.60;37.80;;;;;;1554899;75;758;-72
2022/05/22 09:19:56;;;;;;;;;;;25.70;37.60;;;;;;1541357;75;679;-69
2022/05/22 09:22:00;;;;;;;;;;;25.50;37.40;;;;;;1538263;75;722;-70
2022/05/22 09:24:03;;;;;;;;;;;25.50;37.10;;;;;;1547853;75;2189;-72
2022/05/22 09:26:13;;;;;;;;;;;25.50;37.00;;;;;;1545011;75;1064;-71
2022/05/22 09:28:25;;;;;;;;;;;25.50;37.00;;;;;;1548956;75;1633;-72
2022/05/22 09:30:45;;;;;;;;;;;25.50;36.90;;;;;;1548346;75;718;-72
2022/05/22 09:32:51;;;;;;;;;;;25.50;36.80;;;;;;1542233;75;1173;-68
2022/05/22 09:35:10;;;;;;;;;;;25.50;36.80;;;;;;1564554;72;221105;-58
2022/05/22 09:37:16;;;;;;;;;;;25.50;36.70;;;;;;1594247;72;652;-56
2022/05/22 09:39:35;;;;;;;;;;;25.50;36.70;;;;;;1617219;72;674;-56
2022/05/22 09:41:47;;;;;;;;;;;25.50;36.80;;;;;;1616724;71;1871;-56
2022/05/22 09:44:00;;;;;;;;;;;25.60;36.70;;;;;;1530764;76;1953;-57
2022/05/22 09:46:12;;;;;;;;;;;25.50;36.70;;;;;;1585946;72;1472;-57
2022/05/22 09:48:27;;;;;;;;;;;25.50;36.40;;;;;;1619746;72;705;-58
2022/05/22 09:50:33;;;;;;;;;;;25.60;35.70;;;;;;1632672;71;1134;-55
2022/05/22 09:52:40;;;;;;;;;;;25.50;33.50;;;;;;1617698;72;699;-51
2022/05/22 09:55:00;;;;;;;;;;;25.40;33.80;;;;;;1615544;72;1956;-51
2022/05/22 09:57:20;;;;;;;;;;;25.50;34.90;;;;;;1613055;72;688;-53
2022/05/22 09:59:40;;;;;;;;;;;25.50;35.40;;;;;;1626056;72;689;-57
2022/05/22 10:01:43;;;;;;;;;;;25.50;35.70;;;;;;1610632;72;1023;-55
2022/05/22 10:03:49;;;;;;;;;;;25.50;35.50;;;;;;1618936;72;682;-56
2022/05/22 10:05:53;;;;;;;;;;;25.50;35.40;;;;;;1618091;72;1951;-58
2022/05/22 10:07:59;;;;;;;;;;;25.50;35.00;;;;;;1611074;72;963;-54
2022/05/22 10:10:03;;;;;;;;;;;25.60;35.50;;;;;;1621677;72;1140;-56
2022/05/22 10:12:06;;;;;;;;;;;25.50;33.60;;;;;;1618768;72;1901;-55
2022/05/22 10:14:10;;;;;;;;;;;25.50;35.00;;;;;;1627645;72;735;-56
2022/05/22 10:16:22;;;;;;;;;;;25.60;34.90;;;;;;1622075;72;687;-55
2022/05/22 10:18:37;;;;;;;;;;;25.60;35.10;;;;;;1616412;72;1574;-55
2022/05/22 10:20:57;;;;;;;;;;;25.70;33.80;;;;;;1612542;72;1176;-55
2022/05/22 10:23:04;;;;;;;;;;;25.70;35.00;;;;;;1623349;72;797;-57
2022/05/22 10:25:07;;;;;;;;;;;25.60;34.20;;;;;;1617676;72;1927;-56
2022/05/22 10:27:16;;;;;;;;;;;25.50;34.80;;;;;;1614119;72;1452;-57
2022/05/22 10:29:26;;;;;;;;;;;25.50;34.70;;;;;;1618346;72;682;-56
2022/05/22 10:31:29;;;;;;;;;;;25.60;34.80;;;;;;1616359;72;1133;-58
2022/05/22 10:33:48;;;;;;;;;;;25.70;34.70;;;;;;1628506;72;1748;-58
2022/05/22 10:35:58;;;;;;;;;;;25.70;34.90;;;;;;1609437;72;786;-56
2022/05/22 10:38:04;;;;;;;;;;;25.70;34.80;;;;;;1631235;72;667;-56
2022/05/22 10:40:07;;;;;;;;;;;25.70;34.60;;;;;;1608583;72;1553;-57
2022/05/22 10:44:27;;;;;;;;;;;25.80;34.30;;;;;;1581155;72;1925;-57
2022/05/22 10:46:29;;;;;;;;;;;25.80;34.00;;;;;;1617974;72;688;-57
2022/05/22 10:48:31;;;;;;;;;;;25.70;33.90;;;;;;1614871;72;681;-57
2022/05/22 10:50:33;;;;;;;;;;;25.80;33.80;;;;;;1626486;72;1134;-57
2022/05/22 10:52:35;;;;;;;;;;;25.70;33.80;;;;;;1620125;72;650;-57
2022/05/22 10:54:45;;;;;;;;;;;25.80;33.60;;;;;;1617052;72;1558;-57
2022/05/22 10:56:46;;;;;;;;;;;25.80;33.80;;;;;;1631506;72;699;-58
2022/05/22 10:58:58;;;;;;;;;;;25.70;33.60;;;;;;1619051;72;720;-57
2022/05/22 11:01:01;;;;;;;;;;;25.80;33.00;;;;;;1611681;72;1132;-58
2022/05/22 11:03:12;;;;;;;;;;;25.70;33.30;;;;;;1601283;72;698;-57
2022/05/22 11:05:16;;;;;;;;;;;25.70;33.20;;;;;;1621132;72;1936;-57
2022/05/22 11:07:32;;;;;;;;;;;25.70;33.40;;;;;;1622848;72;682;-57
2022/05/22 11:09:33;;;;;;;;;;;25.70;33.30;;;;;;1589506;72;1771;-57
2022/05/22 11:11:35;;;;;;;;;;;25.70;33.20;;;;;;1618796;71;1126;-57
2022/05/22 11:13:38;;;;;;;;;;;25.70;33.20;;;;;;1620885;72;702;-57
2022/05/22 11:15:42;;;;;;;;;;;25.70;33.20;;;;;;1617541;72;678;-57
2022/05/22 11:17:44;;;;;;;;;;;25.70;33.10;;;;;;1616641;72;750;-57
2022/05/22 11:19:47;;;;;;;;;;;25.70;33.10;;;;;;1603870;72;701;-58
2022/05/22 11:22:06;;;;;;;;;;;25.70;33.10;;;;;;1613423;72;1545;-57
2022/05/22 11:24:13;;;;;;;;;;;25.80;32.70;;;;;;1622582;72;821;-57
2022/05/22 11:26:32;;;;;;;;;;;25.70;32.60;;;;;;1615212;72;1947;-57
2022/05/22 11:28:47;;;;;;;;;;;25.70;32.60;;;;;;1629867;72;1948;-57
2022/05/22 11:30:50;;;;;;;;;;;25.70;32.60;;;;;;1612178;72;1702;-58
2022/05/22 11:33:12;;;;;;;;;;;25.60;32.40;;;;;;1626955;72;787;-57
2022/05/22 11:35:32;;;;;;;;;;;25.70;32.50;;;;;;1610417;72;1850;-57
2022/05/22 11:37:42;;;;;;;;;;;25.60;32.50;;;;;;1627129;72;1609;-57
2022/05/22 11:39:48;;;;;;;;;;;25.50;32.50;;;;;;1599240;72;684;-57
2022/05/22 11:41:52;;;;;;;;;;;25.70;32.50;;;;;;1627223;72;1831;-55
2022/05/22 11:43:59;;;;;;;;;;;25.60;32.40;;;;;;1626538;72;683;-57
2022/05/22 11:46:08;;;;;;;;;;;25.60;32.00;;;;;;1615506;72;1909;-56
2022/05/22 11:48:11;;;;;;;;;;;25.70;32.10;;;;;;1606540;72;1098;-57
2022/05/22 11:50:21;;;;;;;;;;;25.60;31.90;;;;;;1619727;72;1634;-57
2022/05/22 11:52:55;;;;;;;;;;;25.60;32.10;;;;;;1635350;72;673;-53
2022/05/22 11:54:58;;;;;;;;;;;25.60;32.00;;;;;;1600261;72;701;-54
2022/05/22 11:57:07;;;;;;;;;;;25.60;32.00;;;;;;1621917;72;673;-57
2022/05/22 11:59:11;;;;;;;;;;;25.60;31.90;;;;;;1623928;72;736;-54
2022/05/22 12:01:15;;;;;;;;;;;25.60;31.90;;;;;;1631788;72;1674;-54
2022/05/22 12:03:18;;;;;;;;;;;25.50;32.10;;;;;;1615186;72;668;-55
2022/05/22 12:05:39;;;;;;;;;;;25.50;30.60;;;;;;1634323;72;1938;-56
2022/05/22 12:07:49;;;;;;;;;;;25.50;31.80;;;;;;1610995;72;855;-57
2022/05/22 12:09:55;;;;;;;;;;;25.60;31.80;;;;;;1630883;71;1148;-56
2022/05/22 12:12:01;;;;;;;;;;;25.50;31.20;;;;;;1625283;72;658;-54
2022/05/22 12:14:23;;;;;;;;;;;25.50;31.00;;;;;;1618949;72;712;-56
2022/05/22 12:16:25;;;;;;;;;;;25.50;31.80;;;;;;1612251;72;1956;-54
2022/05/22 12:18:32;;;;;;;;;;;25.50;31.80;;;;;;1619188;72;1541;-56
2022/05/22 12:20:35;;;;;;;;;;;25.50;31.90;;;;;;1617750;72;1154;-57
2022/05/22 12:24:59;;;;;;;;;;;25.50;31.90;;;;;;1619107;72;1911;-57
2022/05/22 12:27:03;;;;;;;;;;;25.50;31.90;;;;;;1614898;72;857;-56
2022/05/22 12:29:05;;;;;;;;;;;25.50;31.80;;;;;;1616583;72;1971;-57
2022/05/22 12:31:09;;;;;;;;;;;25.60;31.50;;;;;;1621189;72;1109;-55
2022/05/22 12:33:11;;;;;;;;;;;25.60;31.80;;;;;;1623969;72;1547;-52
2022/05/22 12:35:13;;;;;;;;;;;25.60;31.80;;;;;;1618372;72;785;-57